Time;durP1;ratioP1;P1;durP2;ratioP2;P2;SDS_P1;SDS_P2;PMS_P1;PMS_P2;Temp;Humidity;BMP_temperature;BMP_pressure;BME280_temperature;BME280_humidity;BME280_pressure;Samples;Min_cycle;Max_cycle;Signal;HPM_P1;HPM_P2
2022/07/12 00:01:36;;;;;;;7.55;4.75;;;;;;;22.57;100.00;100496.66;1745064;82;21054;-71
2022/07/12 00:04:03;;;;;;;9.48;5.08;;;;;;;22.56;100.00;100500.23;1729903;81;21090;-70
2022/07/12 00:06:31;;;;;;;9.08;5.45;;;;;;;22.44;100.00;100503.20;1738469;81;21049;-70
2022/07/12 00:08:58;;;;;;;10.28;5.47;;;;;;;22.33;100.00;100498.98;1737485;81;21470;-71
2022/07/12 00:11:25;;;;;;;12.15;5.05;;;;;;;22.01;100.00;100506.70;1749675;82;21591;-70
2022/07/12 00:13:52;;;;;;;8.70;5.17;;;;;;;22.18;100.00;100514.30;1737450;81;21042;-70
2022/07/12 00:16:19;;;;;;;8.43;5.05;;;;;;;22.04;100.00;100512.13;1743619;81;21090;-70
2022/07/12 00:18:47;;;;;;;5.62;5.10;;;;;;;22.07;100.00;100513.17;1740793;81;21053;-71
2022/07/12 00:21:14;;;;;;;8.78;4.95;;;;;;;22.34;100.00;100515.03;1727978;82;21100;-70
2022/07/12 00:23:41;;;;;;;9.90;4.97;;;;;;;22.62;100.00;100514.58;1742163;81;21081;-69
2022/07/12 00:26:09;;;;;;;8.35;5.53;;;;;;;22.58;100.00;100516.66;1720375;81;21038;-70
2022/07/12 00:28:36;;;;;;;7.35;5.08;;;;;;;22.70;100.00;100520.41;1725348;82;21589;-71
2022/07/12 00:31:04;;;;;;;11.57;5.60;;;;;;;22.43;100.00;100523.37;1739362;82;21038;-71
2022/07/12 00:33:32;;;;;;;7.58;5.53;;;;;;;22.49;100.00;100519.34;1723825;82;21034;-71
2022/07/12 00:36:00;;;;;;;6.97;4.95;;;;;;;22.46;100.00;100519.13;1746428;82;21089;-70
2022/07/12 00:38:27;;;;;;;7.47;5.45;;;;;;;22.55;100.00;100524.02;1743098;81;21485;-70
2022/07/12 00:40:55;;;;;;;8.80;5.55;;;;;;;22.43;100.00;100528.61;1732700;81;21045;-71
2022/07/12 00:43:22;;;;;;;6.78;4.95;;;;;;;22.46;100.00;100537.48;1728037;82;21105;-70
2022/07/12 00:45:50;;;;;;;9.90;5.20;;;;;;;22.38;100.00;100540.00;1720367;82;21127;-70
2022/07/12 00:48:18;;;;;;;7.25;5.20;;;;;;;22.43;100.00;100539.11;1735087;82;21038;-70
2022/07/12 00:50:47;;;;;;;8.35;5.00;;;;;;;22.64;100.00;100540.67;1728403;82;21132;-70
2022/07/12 00:53:18;;;;;;;7.08;5.70;;;;;;;22.20;100.00;100545.98;1714214;81;21535;-70
2022/07/12 00:55:45;;;;;;;8.58;5.25;;;;;;;22.26;100.00;100546.40;1741182;81;21037;-70
2022/07/12 00:58:13;;;;;;;6.17;5.10;;;;;;;22.34;100.00;100544.73;1740325;81;21553;-70
2022/07/12 01:00:40;;;;;;;6.70;5.00;;;;;;;22.62;100.00;100541.30;1727971;81;21142;-71
2022/07/12 01:03:08;;;;;;;9.45;5.62;;;;;;;22.40;100.00;100549.88;1735106;81;21086;-70
2022/07/12 01:05:35;;;;;;;6.15;5.15;;;;;;;22.58;100.00;100554.70;1731220;81;21076;-70
2022/07/12 01:08:04;;;;;;;8.50;5.42;;;;;;;22.72;100.00;100544.70;1735341;81;21029;-70
2022/07/12 01:10:32;;;;;;;8.28;5.37;;;;;;;22.75;100.00;100555.75;1738157;81;21026;-71
2022/07/12 01:13:00;;;;;;;6.75;5.37;;;;;;;22.90;98.99;100559.20;1738735;81;21062;-70
2022/07/12 01:15:29;;;;;;;11.53;5.60;;;;;;;22.86;98.97;100554.72;1745629;81;21056;-71
2022/07/12 01:17:58;;;;;;;9.45;5.33;;;;;;;22.74;99.24;100562.45;1726743;81;21038;-70
2022/07/12 01:20:26;;;;;;;10.72;5.65;;;;;;;22.72;99.57;100568.33;1726611;81;21050;-70
2022/07/12 01:22:57;;;;;;;7.92;5.75;;;;;;;22.65;100.00;100565.92;1731030;81;21561;-70
2022/07/12 01:25:25;;;;;;;11.57;5.92;;;;;;;22.71;99.19;100569.28;1728515;82;21082;-71
2022/07/12 01:27:53;;;;;;;6.47;5.30;;;;;;;22.66;99.58;100574.16;1725022;81;21069;-72
2022/07/12 01:30:21;;;;;;;8.25;5.62;;;;;;;22.42;100.00;100576.78;1744533;81;21078;-71
2022/07/12 01:32:49;;;;;;;12.78;5.40;;;;;;;22.49;100.00;100577.88;1743914;81;21509;-71
2022/07/12 01:35:18;;;;;;;6.75;5.40;;;;;;;22.52;99.78;100578.06;1738419;81;21006;-70
2022/07/12 01:37:46;;;;;;;9.75;5.55;;;;;;;22.63;99.92;100580.98;1736633;82;21057;-70
2022/07/12 01:40:16;;;;;;;6.53;5.15;;;;;;;22.57;99.71;100585.86;1740923;81;21034;-70
2022/07/12 01:42:44;;;;;;;9.45;5.40;;;;;;;22.45;99.55;100594.05;1742045;81;21569;-70
2022/07/12 01:45:12;;;;;;;7.90;5.15;;;;;;;22.61;98.64;100590.34;1724502;81;21106;-70
2022/07/12 01:47:41;;;;;;;8.75;5.53;;;;;;;22.63;98.69;100600.66;1748331;81;21498;-70
2022/07/12 01:50:10;;;;;;;7.72;5.22;;;;;;;22.45;99.20;100596.19;1732323;81;21011;-70
2022/07/12 01:52:40;;;;;;;10.23;5.08;;;;;;;22.62;98.42;100609.03;1726657;81;21089;-70
2022/07/12 01:55:09;;;;;;;5.60;5.10;;;;;;;22.50;98.55;100606.23;1729800;82;21094;-70
2022/07/12 01:57:39;;;;;;;6.55;5.33;;;;;;;22.44;98.67;100608.94;1744064;81;21080;-70
2022/07/12 02:00:08;;;;;;;6.87;4.87;;;;;;;22.63;97.91;100608.08;1741732;81;21031;-70
2022/07/12 02:02:36;;;;;;;7.03;5.28;;;;;;;22.58;97.63;100613.73;1739494;81;21062;-70
2022/07/12 02:05:05;;;;;;;8.10;5.25;;;;;;;22.45;98.33;100620.28;1731984;81;21022;-71
2022/07/12 02:07:34;;;;;;;8.58;5.47;;;;;;;22.33;99.03;100624.37;1734805;81;21042;-70
2022/07/12 02:10:01;;;;;;;6.95;5.58;;;;;;;22.47;97.67;100619.16;1743604;81;21568;-70
2022/07/12 02:12:29;;;;;;;6.70;5.00;;;;;;;22.41;98.06;100623.67;1720032;81;21506;-70
2022/07/12 02:14:56;;;;;;;5.67;5.08;;;;;;;22.50;97.46;100621.98;1729125;81;21076;-70
2022/07/12 02:17:24;;;;;;;7.70;5.62;;;;;;;22.47;97.61;100627.03;1731507;81;21114;-70
2022/07/12 02:19:51;;;;;;;8.45;5.20;;;;;;;22.12;98.66;100629.77;1727637;81;21586;-70
2022/07/12 02:22:18;;;;;;;6.28;5.62;;;;;;;21.86;100.00;100635.20;1738521;81;21042;-69
2022/07/12 02:24:46;;;;;;;7.42;5.58;;;;;;;22.12;100.00;100632.38;1732430;81;21039;-70
2022/07/12 02:27:14;;;;;;;6.95;5.65;;;;;;;22.51;99.17;100638.90;1739123;81;21131;-70
2022/07/12 02:29:42;;;;;;;7.87;5.60;;;;;;;22.38;99.64;100645.77;1741703;81;21072;-70
2022/07/12 02:32:09;;;;;;;7.95;5.47;;;;;;;22.60;98.22;100649.02;1730051;81;21499;-70
2022/07/12 02:34:36;;;;;;;10.43;5.62;;;;;;;22.59;98.12;100640.32;1747364;81;21041;-70
2022/07/12 02:37:04;;;;;;;8.30;5.22;;;;;;;22.64;98.10;100646.45;1732231;81;21054;-70
2022/07/12 02:39:31;;;;;;;7.17;5.65;;;;;;;22.77;97.07;100644.34;1745343;81;21049;-70
2022/07/12 02:41:59;;;;;;;6.17;5.58;;;;;;;22.75;96.88;100641.50;1742834;81;21037;-70
2022/07/12 02:44:26;;;;;;;12.80;5.75;;;;;;;22.77;96.93;100643.53;1742990;81;21084;-70
2022/07/12 02:46:53;;;;;;;7.72;5.75;;;;;;;22.74;96.93;100645.93;1733112;81;21077;-70
2022/07/12 02:49:23;;;;;;;6.90;6.25;;;;;;;22.72;97.50;100645.73;1749895;81;21533;-70
2022/07/12 02:51:50;;;;;;;9.08;6.30;;;;;;;22.68;97.88;100641.75;1725133;81;21124;-70
2022/07/12 02:54:17;;;;;;;10.65;6.42;;;;;;;22.79;97.93;100643.72;1725917;81;21137;-70
2022/07/12 02:56:44;;;;;;;10.70;6.83;;;;;;;22.92;96.93;100641.25;1725518;81;21053;-70
2022/07/12 02:59:12;;;;;;;9.13;6.60;;;;;;;22.88;96.84;100645.95;1739556;81;21108;-70
2022/07/12 03:01:39;;;;;;;8.05;6.67;;;;;;;22.87;97.09;100646.94;1725852;81;21082;-70
2022/07/12 03:04:08;;;;;;;8.48;6.67;;;;;;;22.91;96.52;100639.12;1726294;81;21157;-71
2022/07/12 03:06:36;;;;;;;13.68;7.30;;;;;;;22.97;96.61;100639.84;1732001;82;21041;-70
2022/07/12 03:09:04;;;;;;;8.38;6.95;;;;;;;23.00;96.24;100650.53;1742443;81;22114;-70
2022/07/12 03:11:32;;;;;;;9.08;6.67;;;;;;;22.96;95.44;100651.80;1719800;81;21062;-69
2022/07/12 03:13:59;;;;;;;11.30;7.85;;;;;;;23.14;96.47;100661.08;1739535;81;21517;-70
2022/07/12 03:16:26;;;;;;;12.03;8.10;;;;;;;23.21;95.92;100654.26;1741660;81;21126;-70
2022/07/12 03:18:54;;;;;;;11.05;8.23;;;;;;;23.20;96.29;100662.63;1714448;82;21483;-70
2022/07/12 03:21:21;;;;;;;10.82;7.83;;;;;;;23.28;96.37;100663.72;1736061;81;21675;-69
2022/07/12 03:23:51;;;;;;;11.68;7.62;;;;;;;23.35;95.45;100666.90;1732464;81;21045;-70
2022/07/12 03:26:22;;;;;;;9.53;8.15;;;;;;;23.31;95.79;100672.11;1744979;81;22168;-70
2022/07/12 03:28:49;;;;;;;11.88;7.78;;;;;;;23.31;95.42;100672.11;1737328;81;21542;-70
2022/07/12 03:31:16;;;;;;;11.68;8.13;;;;;;;23.31;94.17;100683.11;1739566;81;21045;-71
2022/07/12 03:33:44;;;;;;;9.15;7.35;;;;;;;23.17;96.39;100677.35;1725282;81;21084;-70
2022/07/12 03:36:13;;;;;;;10.50;7.97;;;;;;;23.10;96.75;100684.67;1738696;81;21037;-70
2022/07/12 03:38:40;;;;;;;13.20;8.73;;;;;;;23.08;97.94;100685.30;1732902;81;21094;-70
2022/07/12 03:41:07;;;;;;;9.60;7.83;;;;;;;23.67;96.81;100687.94;1725697;81;21065;-70
2022/07/12 03:43:35;;;;;;;10.28;7.90;;;;;;;23.97;93.97;100684.16;1721802;81;21176;-70
2022/07/12 03:46:02;;;;;;;11.70;8.43;;;;;;;23.13;96.44;100691.75;1742135;81;21607;-70
2022/07/12 03:48:30;;;;;;;10.70;7.62;;;;;;;23.32;96.78;100703.16;1719638;81;21093;-70
2022/07/12 03:50:57;;;;;;;11.40;7.50;;;;;;;23.87;94.10;100693.11;1737689;81;21054;-70
2022/07/12 03:53:25;;;;;;;9.80;7.83;;;;;;;23.99;92.45;100702.42;1717980;81;21078;-70
2022/07/12 03:55:52;;;;;;;8.78;7.78;;;;;;;23.97;92.24;100700.44;1731562;81;20986;-71
2022/07/12 03:58:19;;;;;;;10.13;7.58;;;;;;;24.07;92.41;100704.28;1731659;81;21046;-70
2022/07/12 04:00:47;;;;;;;9.28;7.60;;;;;;;23.78;92.63;100707.95;1719979;82;21073;-70
2022/07/12 04:03:14;;;;;;;8.13;7.30;;;;;;;23.48;94.17;100709.07;1720111;82;21132;-71
2022/07/12 04:05:42;;;;;;;11.48;7.45;;;;;;;23.83;92.41;100707.03;1722905;82;21046;-70
2022/07/12 04:08:09;;;;;;;10.43;7.28;;;;;;;24.04;92.35;100708.54;1720620;82;21022;-70
2022/07/12 04:10:37;;;;;;;13.48;7.92;;;;;;;24.09;91.46;100715.00;1721689;82;21092;-70
2022/07/12 04:13:05;;;;;;;10.38;7.80;;;;;;;24.08;91.35;100715.97;1721664;82;21081;-71
2022/07/12 04:15:34;;;;;;;7.45;6.75;;;;;;;24.20;90.97;100719.20;1721266;82;21080;-71
2022/07/12 04:18:02;;;;;;;8.00;7.20;;;;;;;24.28;89.82;100722.39;1721365;82;21088;-70
2022/07/12 04:20:30;;;;;;;9.48;7.30;;;;;;;24.34;89.95;100722.61;1725000;82;21533;-71
2022/07/12 04:22:58;;;;;;;12.40;7.53;;;;;;;24.28;88.95;100727.66;1719622;82;21112;-70
2022/07/12 04:25:28;;;;;;;9.48;7.28;;;;;;;24.55;89.21;100729.38;1719282;82;21085;-70
2022/07/12 04:27:55;;;;;;;10.72;7.70;;;;;;;24.49;90.66;100732.09;1723160;82;21046;-70
2022/07/12 04:30:22;;;;;;;9.28;7.97;;;;;;;24.63;91.14;100737.83;1723361;82;21081;-70
2022/07/12 04:32:51;;;;;;;7.65;6.67;;;;;;;24.91;88.30;100735.87;1723405;82;21108;-70
2022/07/12 04:35:18;;;;;;;8.13;7.05;;;;;;;24.59;87.11;100740.78;1723818;82;21577;-70
2022/07/12 04:37:45;;;;;;;11.55;7.33;;;;;;;24.52;88.55;100742.85;1720833;82;21105;-70
2022/07/12 04:40:13;;;;;;;10.13;7.78;;;;;;;24.35;89.74;100745.32;1721844;82;21573;-69
2022/07/12 04:42:40;;;;;;;13.13;8.40;;;;;;;24.31;90.13;100743.13;1721563;82;21072;-70
2022/07/12 04:45:08;;;;;;;10.10;7.53;;;;;;;24.99;86.98;100739.37;1722215;82;21679;-70
2022/07/12 04:47:37;;;;;;;8.95;7.90;;;;;;;25.06;86.70;100740.06;1721917;82;21068;-70
2022/07/12 04:50:08;;;;;;;9.48;7.10;;;;;;;25.19;85.60;100740.47;1720304;82;21469;-70
2022/07/12 04:52:36;;;;;;;9.95;7.20;;;;;;;25.19;83.61;100753.14;1721540;82;21014;-70
2022/07/12 04:55:05;;;;;;;9.55;7.35;;;;;;;25.25;83.50;100754.36;1720223;82;21093;-69
2022/07/12 04:57:32;;;;;;;7.30;6.47;;;;;;;25.19;83.34;100752.33;1724581;82;21028;-70
2022/07/12 05:00:00;;;;;;;7.20;6.58;;;;;;;25.18;83.04;100750.66;1724523;82;21077;-69
2022/07/12 05:02:27;;;;;;;6.92;6.28;;;;;;;24.18;85.12;100758.80;1725226;82;21104;-70
2022/07/12 05:04:55;;;;;;;9.45;7.15;;;;;;;23.63;93.38;100764.61;1721967;82;21041;-70
2022/07/12 05:07:22;;;;;;;12.90;7.60;;;;;;;23.63;97.71;100768.05;1721664;82;21097;-70
2022/07/12 05:09:51;;;;;;;7.47;6.78;;;;;;;23.68;95.88;100770.23;1722870;82;21065;-70
2022/07/12 05:12:19;;;;;;;7.47;6.80;;;;;;;23.71;96.70;100764.20;1720622;82;21053;-69
2022/07/12 05:14:46;;;;;;;10.93;7.17;;;;;;;23.77;94.74;100767.59;1723341;82;21547;-69
2022/07/12 05:17:14;;;;;;;10.60;6.80;;;;;;;23.89;94.73;100764.77;1725080;82;21113;-70
2022/07/12 05:19:42;;;;;;;8.88;6.30;;;;;;;24.01;94.99;100764.89;1722193;82;21006;-70
2022/07/12 05:22:09;;;;;;;6.12;5.53;;;;;;;25.98;87.73;100762.22;1722845;82;21025;-69
2022/07/12 05:24:37;;;;;;;7.85;6.47;;;;;;;26.31;81.43;100763.56;1722566;82;21017;-70
2022/07/12 05:27:05;;;;;;;9.85;5.83;;;;;;;25.94;80.51;100768.80;1722269;82;21085;-71
2022/07/12 05:29:32;;;;;;;6.72;5.85;;;;;;;25.56;81.72;100772.27;1720552;82;21010;-71
2022/07/12 05:32:01;;;;;;;6.97;5.78;;;;;;;26.27;80.59;100766.20;1722288;82;21042;-70
2022/07/12 05:34:29;;;;;;;5.90;5.30;;;;;;;26.64;79.32;100766.23;1723622;82;21192;-70
2022/07/12 05:36:56;;;;;;;6.55;5.85;;;;;;;26.51;75.61;100768.03;1721349;82;21038;-70
2022/07/12 05:39:23;;;;;;;6.22;5.00;;;;;;;26.71;76.54;100764.58;1722198;82;21459;-71
2022/07/12 05:41:50;;;;;;;6.62;4.72;;;;;;;26.91;75.03;100765.87;1737133;81;21072;-70
2022/07/12 05:44:18;;;;;;;6.72;5.25;;;;;;;26.72;71.97;100764.42;1744874;81;21093;-70
2022/07/12 05:46:46;;;;;;;5.45;4.90;;;;;;;26.80;73.76;100777.27;1733082;81;21087;-70
2022/07/12 05:49:14;;;;;;;5.95;5.35;;;;;;;26.81;73.67;100774.47;1715754;81;21078;-70
2022/07/12 05:54:27;;;;;;;7.22;4.90;;;;;;;27.47;72.30;100780.41;1731432;81;21576;-70
2022/07/12 05:56:55;;;;;;;8.93;5.67;;;;;;;27.55;71.86;100775.59;1737078;81;21082;-71
2022/07/12 05:59:22;;;;;;;5.95;5.10;;;;;;;27.46;71.21;100777.45;1731839;81;21058;-71
2022/07/12 06:01:50;;;;;;;5.85;5.28;;;;;;;27.24;71.22;100777.70;1738726;81;21038;-71
2022/07/12 06:04:17;;;;;;;5.78;5.08;;;;;;;27.64;72.25;100774.57;1735379;81;21019;-70
2022/07/12 06:06:44;;;;;;;7.58;5.20;;;;;;;27.85;71.70;100777.10;1747653;82;21608;-70
2022/07/12 06:09:12;;;;;;;6.58;5.40;;;;;;;26.95;69.84;100778.25;1747521;81;21033;-70
2022/07/12 06:11:39;;;;;;;6.40;5.40;;;;;;;27.69;69.75;100773.53;1742234;81;21041;-71
2022/07/12 06:14:06;;;;;;;6.85;4.60;;;;;;;27.93;70.21;100782.37;1735956;81;21092;-70
2022/07/12 06:16:34;;;;;;;6.83;4.95;;;;;;;28.00;71.41;100767.42;1736761;81;21074;-70
2022/07/12 06:19:01;;;;;;;5.80;4.20;;;;;;;28.21;70.08;100772.10;1719953;81;21048;-71
2022/07/12 06:21:29;;;;;;;5.90;3.62;;;;;;;28.19;66.66;100766.66;1727714;81;21056;-71
2022/07/12 06:23:56;;;;;;;6.25;3.33;;;;;;;28.42;64.74;100775.40;1732247;81;21038;-73
2022/07/12 06:26:23;;;;;;;4.78;4.20;;;;;;;27.26;65.76;100780.18;1736579;82;21063;-71
2022/07/12 06:28:51;;;;;;;6.17;3.72;;;;;;;26.44;67.14;100769.66;1733027;81;20982;-72
2022/07/12 06:31:18;;;;;;;5.47;3.70;;;;;;;27.58;67.43;100769.47;1737057;81;21070;-72
2022/07/12 06:33:45;;;;;;;5.97;4.25;;;;;;;26.37;67.60;100772.14;1740970;81;21086;-72
2022/07/12 06:36:13;;;;;;;8.08;4.72;;;;;;;26.56;69.52;100770.51;1721803;82;21170;-71
2022/07/12 06:38:40;;;;;;;7.67;4.65;;;;;;;26.66;70.07;100770.34;1728729;81;21056;-71
2022/07/12 06:41:10;;;;;;;4.85;4.40;;;;;;;28.74;67.10;100772.99;1709175;82;21086;-70
2022/07/12 06:43:38;;;;;;;6.47;4.92;;;;;;;28.73;67.28;100777.14;1719547;82;20992;-70
2022/07/12 06:46:06;;;;;;;4.78;4.25;;;;;;;27.62;67.87;100777.07;1730570;81;21096;-70
2022/07/12 06:48:34;;;;;;;6.37;4.40;;;;;;;29.09;63.85;100778.59;1747015;81;21623;-71
2022/07/12 06:51:01;;;;;;;5.67;4.47;;;;;;;28.98;63.41;100783.03;1729292;82;21004;-71
2022/07/12 06:53:28;;;;;;;7.22;4.40;;;;;;;28.60;63.48;100781.73;1745990;81;21053;-70
2022/07/12 06:55:57;;;;;;;6.28;4.80;;;;;;;27.97;63.38;100788.97;1743336;81;21004;-71
2022/07/12 06:58:24;;;;;;;4.65;4.25;;;;;;;27.14;68.71;100786.28;1732899;81;21032;-71
2022/07/12 07:00:51;;;;;;;5.85;4.22;;;;;;;29.05;62.59;100789.75;1742478;81;21035;-70
2022/07/12 07:03:18;;;;;;;8.53;4.15;;;;;;;29.20;61.71;100787.97;1737059;80;21589;-70
2022/07/12 07:05:47;;;;;;;8.73;5.10;;;;;;;28.91;61.27;100790.05;1743289;82;21076;-70
2022/07/12 07:08:14;;;;;;;6.05;4.53;;;;;;;28.98;62.77;100788.84;1731962;81;21039;-71
2022/07/12 07:10:42;;;;;;;5.60;4.97;;;;;;;29.47;62.06;100787.80;1728788;80;21495;-71
2022/07/12 07:13:10;;;;;;;8.05;4.67;;;;;;;29.94;63.66;100793.67;1720922;80;21094;-71
2022/07/12 07:15:40;;;;;;;6.12;4.72;;;;;;;29.62;62.23;100793.06;1724958;81;21085;-70
2022/07/12 07:18:09;;;;;;;4.92;3.10;;;;;;;29.96;61.54;100793.79;1722520;81;21082;-71
2022/07/12 07:20:40;;;;;;;3.60;3.20;;;;;;;30.00;59.39;100795.57;1728548;81;21142;-71
2022/07/12 07:23:07;;;;;;;3.90;3.40;;;;;;;29.87;58.92;100788.30;1747520;81;21079;-70
2022/07/12 07:25:34;;;;;;;6.87;3.50;;;;;;;29.42;57.61;100795.98;1744409;81;21095;-71
2022/07/12 07:28:02;;;;;;;4.22;3.72;;;;;;;29.50;58.09;100790.58;1723449;81;21497;-70
2022/07/12 07:33:16;;;;;;;4.20;3.47;;;;;;;30.31;57.10;100795.80;1728416;81;21028;-71
2022/07/12 07:35:44;;;;;;;4.08;2.85;;;;;;;30.33;57.34;100791.11;1729293;81;21043;-70
2022/07/12 07:38:12;;;;;;;5.92;3.25;;;;;;;30.75;56.53;100799.53;1729413;80;21499;-71
2022/07/12 07:40:39;;;;;;;2.92;2.72;;;;;;;30.85;55.50;100803.18;1723591;82;21035;-71
2022/07/12 07:43:09;;;;;;;5.28;3.40;;;;;;;30.97;55.21;100804.02;1725602;81;21051;-71
2022/07/12 07:45:38;;;;;;;3.27;2.98;;;;;;;30.91;54.99;100800.30;1737083;81;21130;-70
2022/07/12 07:48:06;;;;;;;4.80;3.35;;;;;;;30.91;54.99;100800.30;1728522;81;21015;-70
2022/07/12 07:50:33;;;;;;;4.92;3.72;;;;;;;30.93;56.43;100806.23;1737048;81;21059;-71
2022/07/12 07:53:00;;;;;;;4.08;3.40;;;;;;;31.21;54.92;100804.88;1738805;81;21098;-71
2022/07/12 07:55:27;;;;;;;3.17;2.87;;;;;;;31.16;55.29;100805.95;1734851;81;21084;-71
2022/07/12 07:57:55;;;;;;;5.75;3.45;;;;;;;30.91;56.33;100799.78;1739182;81;21104;-70
2022/07/12 08:00:22;;;;;;;3.33;3.02;;;;;;;31.54;53.37;100804.23;1728882;82;21059;-70
2022/07/12 08:02:49;;;;;;;5.72;3.30;;;;;;;31.61;52.65;100797.11;1743920;81;21110;-71
2022/07/12 08:05:17;;;;;;;4.75;3.00;;;;;;;31.67;53.47;100800.79;1751461;81;21515;-70
2022/07/12 08:07:44;;;;;;;6.47;2.87;;;;;;;30.07;56.33;100795.63;1745751;81;21035;-71
2022/07/12 08:10:12;;;;;;;3.80;2.72;;;;;;;29.63;54.85;100799.22;1724697;81;21026;-71
2022/07/12 08:12:41;;;;;;;4.83;2.50;;;;;;;29.83;56.19;100796.83;1721415;81;21044;-71
2022/07/12 08:15:10;;;;;;;2.83;2.62;;;;;;;29.85;56.17;100803.59;1721957;82;21118;-72
2022/07/12 08:17:38;;;;;;;4.17;2.47;;;;;;;29.92;56.33;100806.31;1720636;82;21136;-72
2022/07/12 08:20:06;;;;;;;4.47;2.85;;;;;;;31.97;51.54;100808.46;1726349;82;21016;-71
2022/07/12 08:22:34;;;;;;;5.17;2.80;;;;;;;32.25;52.05;100809.67;1750742;81;21046;-71
2022/07/12 08:25:02;;;;;;;3.00;2.70;;;;;;;30.50;53.34;100811.61;1723859;82;21075;-71
2022/07/12 08:27:29;;;;;;;3.65;2.70;;;;;;;30.27;54.24;100812.61;1733327;81;21036;-71
2022/07/12 08:29:56;;;;;;;2.90;2.30;;;;;;;30.28;55.34;100809.44;1728796;82;21142;-71
2022/07/12 08:32:24;;;;;;;4.28;2.40;;;;;;;29.74;53.65;100816.00;1726225;82;21040;-71
2022/07/12 08:34:51;;;;;;;3.12;2.37;;;;;;;30.00;53.23;100812.83;1747784;81;21015;-71
2022/07/12 08:37:18;;;;;;;3.75;2.70;;;;;;;30.04;55.65;100816.75;1741039;81;21576;-71
2022/07/12 08:39:46;;;;;;;3.37;2.20;;;;;;;30.35;53.06;100816.97;1743553;82;21483;-71
2022/07/12 08:42:16;;;;;;;4.17;2.40;;;;;;;30.24;53.19;100821.45;1722514;81;21059;-71
2022/07/12 08:44:55;;;;;;;2.58;2.37;;;;;;;29.59;52.46;100824.47;1735881;82;21099;-70
2022/07/12 08:47:22;;;;;;;2.30;2.10;;;;;;;29.21;52.79;100829.36;1716518;82;20996;-71
2022/07/12 08:50:13;;;;;;;2.90;2.15;;;;;;;29.62;53.33;100822.25;1725660;82;21500;-72
2022/07/12 08:52:43;;;;;;;3.05;2.05;;;;;;;29.90;53.26;100829.05;1722289;81;21126;-71
2022/07/12 08:55:34;;;;;;;2.60;2.22;;;;;;;30.06;52.30;100821.36;1727879;82;21009;-71
2022/07/12 08:58:10;;;;;;;2.67;2.20;;;;;;;30.37;51.29;100829.56;1678405;83;21086;-71
2022/07/12 09:00:40;;;;;;;3.77;2.00;;;;;;;30.63;52.39;100829.48;1716677;81;21067;-71
2022/07/12 09:03:07;;;;;;;2.15;1.82;;;;;;;30.07;51.11;100828.33;1741126;81;21062;-71
2022/07/12 09:05:35;;;;;;;6.20;2.20;;;;;;;30.08;51.42;100823.33;1725736;81;21075;-71
2022/07/12 09:08:07;;;;;;;3.92;1.90;;;;;;;30.41;51.98;100825.51;1725785;81;21015;-71
2022/07/12 09:10:52;;;;;;;2.47;1.80;;;;;;;30.28;50.24;100826.19;1727645;81;21059;-71
2022/07/12 09:13:19;;;;;;;4.90;1.85;;;;;;;30.70;52.14;100831.19;1733665;82;21024;-71
2022/07/12 09:15:47;;;;;;;3.87;1.82;;;;;;;30.31;51.03;100838.28;1723882;82;21050;-71
2022/07/12 09:18:25;;;;;;;2.22;1.80;;;;;;;30.36;50.31;100825.27;1740808;82;21088;-71
2022/07/12 09:20:52;;;;;;;7.65;2.00;;;;;;;29.96;50.84;100831.47;1737446;82;21051;-71
2022/07/12 09:23:19;;;;;;;3.17;1.87;;;;;;;30.20;52.14;100836.12;1742056;81;21011;-71
2022/07/12 09:25:52;;;;;;;2.85;1.80;;;;;;;30.47;51.67;100835.89;1734580;80;21027;-71
2022/07/12 09:28:16;;;;;;;3.12;2.02;;;;;;;30.39;49.89;100828.86;1726797;82;21998;-71
2022/07/12 09:30:50;;;;;;;3.10;1.80;;;;;;;30.14;51.02;100835.84;1736275;81;21036;-71
2022/07/12 09:36:07;;;;;;;3.75;1.80;;;;;;;30.99;50.75;100833.89;1736457;82;20107;-71
2022/07/12 09:38:53;;;;;;;3.87;1.72;;;;;;;30.80;50.33;100834.85;1742135;80;21069;-72
2022/07/12 09:41:22;;;;;;;2.98;1.80;;;;;;;30.13;49.07;100836.03;1739259;81;21026;-70
2022/07/12 09:43:50;;;;;;;3.25;1.92;;;;;;;30.05;49.37;100835.66;1738851;81;21398;-70
2022/07/12 09:46:18;;;;;;;4.67;1.82;;;;;;;30.61;49.70;100828.34;1723391;82;21046;-71
2022/07/12 09:48:46;;;;;;;2.55;1.80;;;;;;;30.66;51.64;100829.94;1742810;81;21547;-71
2022/07/12 09:51:17;;;;;;;2.10;1.72;;;;;;;30.78;49.89;100826.25;1738290;81;21052;-71
2022/07/12 09:53:47;;;;;;;2.77;1.80;;;;;;;30.75;50.26;100823.45;1749646;81;21070;-70
2022/07/12 09:56:19;;;;;;;3.85;1.80;;;;;;;30.56;49.11;100828.11;1736073;81;20978;-72
2022/07/12 09:58:58;;;;;;;1.95;1.80;;;;;;;31.16;50.37;100825.90;1735836;81;21014;-71
2022/07/12 10:01:25;;;;;;;5.15;2.05;;;;;;;31.45;47.35;100836.00;1731929;81;21203;-70
2022/07/12 10:03:54;;;;;;;2.42;1.90;;;;;;;31.32;48.53;100833.55;1729659;81;21066;-71
2022/07/12 10:06:31;;;;;;;4.30;2.10;;;;;;;31.18;48.10;100835.83;1743069;81;20956;-71
2022/07/12 10:08:58;;;;;;;2.40;1.80;;;;;;;31.18;48.60;100827.85;1736723;81;21012;-71
2022/07/12 10:11:27;;;;;;;1.92;1.50;;;;;;;31.32;48.89;100825.58;1748405;81;21094;-71
2022/07/12 10:13:54;;;;;;;3.15;1.80;;;;;;;31.03;46.59;100833.81;1727690;81;20979;-71
2022/07/12 10:16:26;;;;;;;2.62;1.85;;;;;;;31.43;46.73;100830.88;1734045;82;21080;-71
2022/07/12 10:19:23;;;;;;;2.15;1.90;;;;;;;30.99;47.82;100836.03;1734917;81;21063;-71
2022/07/12 10:21:55;;;;;;;2.40;2.10;;;;;;;31.10;48.13;100829.34;1711953;82;21004;-71
2022/07/12 10:24:45;;;;;;;3.70;1.90;;;;;;;31.64;47.53;100831.29;1733638;81;20983;-72
2022/07/12 10:27:23;;;;;;;3.15;1.60;;;;;;;31.77;46.93;100829.18;1741443;81;20972;-72
2022/07/12 10:29:52;;;;;;;4.12;2.00;;;;;;;31.67;47.21;100824.74;1740073;81;21055;-71
2022/07/12 10:32:35;;;;;;;2.75;1.52;;;;;;;31.23;46.61;100829.44;1743830;81;21011;-72
2022/07/12 10:35:13;;;;;;;2.70;1.65;;;;;;;31.04;44.99;100822.95;1748584;81;21071;-71
2022/07/12 10:37:41;;;;;;;2.60;1.87;;;;;;;31.88;46.87;100826.47;1750327;81;21046;-72
2022/07/12 10:40:18;;;;;;;2.70;1.70;;;;;;;31.45;45.17;100828.02;1722091;82;21012;-71
2022/07/12 10:43:06;;;;;;;2.65;1.60;;;;;;;31.65;45.92;100824.97;1748407;81;21016;-72
2022/07/12 10:45:41;;;;;;;2.85;1.60;;;;;;;32.23;47.12;100823.70;1716509;82;21106;-70
2022/07/12 10:48:19;;;;;;;1.60;1.50;;;;;;;32.06;43.45;100824.09;1745759;81;21070;-71
2022/07/12 10:50:57;;;;;;;3.72;1.60;;;;;;;31.74;44.57;100823.75;1745452;81;21079;-72
2022/07/12 10:53:40;;;;;;;2.98;1.50;;;;;;;32.12;44.65;100819.80;1751652;81;21019;-72
2022/07/12 10:56:24;;;;;;;2.77;1.60;;;;;;;31.71;44.55;100824.17;1745212;81;21614;-72
2022/07/12 10:58:58;;;;;;;3.77;1.50;;;;;;;31.92;44.77;100824.53;1739238;82;21542;-72
2022/07/12 11:01:29;;;;;;;2.77;1.47;;;;;;;31.87;43.70;100820.30;1748891;81;21516;-71
2022/07/12 11:04:06;;;;;;;1.62;1.50;;;;;;;31.93;43.61;100818.69;1748262;81;21594;-72
2022/07/12 11:06:41;;;;;;;2.45;1.52;;;;;;;32.20;45.43;100826.75;1746641;81;21039;-72
2022/07/12 11:09:13;;;;;;;2.20;1.70;;;;;;;32.11;45.63;100819.48;1748527;81;21574;-72
2022/07/12 11:11:51;;;;;;;4.20;1.65;;;;;;;32.08;43.55;100815.91;1748572;81;21007;-72
2022/07/12 11:14:30;;;;;;;3.12;2.02;;;;;;;32.02;44.51;100819.38;1747600;81;21558;-72
2022/07/12 11:16:57;;;;;;;1.90;1.70;;;;;;;32.65;45.89;100813.72;1748516;82;21007;-72
2022/07/12 11:19:27;;;;;;;2.20;1.55;;;;;;;32.38;42.92;100808.33;1746856;81;21031;-71
2022/07/12 11:21:56;;;;;;;4.47;1.65;;;;;;;31.94;43.23;100809.69;1748510;81;21106;-73
2022/07/12 11:24:26;;;;;;;4.22;1.45;;;;;;;31.87;42.94;100810.98;1747573;81;21063;-72
2022/07/12 11:26:54;;;;;;;2.10;1.87;;;;;;;31.92;43.39;100818.39;1746254;81;21059;-72
2022/07/12 11:29:24;;;;;;;2.60;1.50;;;;;;;32.29;45.41;100821.55;1749531;81;21000;-72
2022/07/12 11:32:03;;;;;;;1.50;1.40;;;;;;;34.85;41.90;100810.81;1747544;81;21094;-72
2022/07/12 11:34:30;;;;;;;2.12;1.70;;;;;;;33.46;42.69;100808.53;1748941;81;21046;-71
2022/07/12 11:37:03;;;;;;;1.47;1.37;;;;;;;34.70;40.66;100812.50;1748260;81;21039;-71
2022/07/12 11:39:39;;;;;;;5.90;1.90;;;;;;;34.80;37.34;100816.02;1745762;81;21065;-71
2022/07/12 11:42:12;;;;;;;1.85;1.40;;;;;;;34.87;38.52;100816.75;1746758;81;21024;-71